DAUG/GHA METAR and TAF weather

Enter ICAO airport designator
Station Type Date Time Source
DAUG METAR 2024/05/28 22:00 UTC NOAA

DAUG 282200Z 18003KT CAVOK 32/00 Q1016


Station Type Date Time Source
DAUG Decoded METAR 2024/05/28 22:00 UTC NOAA

Ghardaia, Algeria (DAUG) 32-23N 003-49E 450M
May 28, 2024 - 06:00 PM EDT / 2024.05.28 2200 UTC
Wind: from the S (180 degrees) at 3 MPH (3 KT):0
Visibility: greater than 7 mile(s):0
Temperature: 89 F (32 C)
Dew Point: 32 F (0 C)
Relative Humidity: 12%
Pressure (altimeter): 30.00 in. Hg (1016 hPa)
ob: DAUG 282200Z 18003KT CAVOK 32/00 Q1016
cycle: 22

Station Type Date Time Source
DAUG TAF 2024/05/28 18:32 UTC NOAA